createdAt,value
2018-10-12T00:01:53.233Z,100948.00
2018-10-12T00:04:21.114Z,100947.00
2018-10-12T00:06:49.022Z,100947.00
2018-10-12T00:09:16.901Z,100938.00
2018-10-12T00:11:44.802Z,100946.00
2018-10-12T00:14:12.706Z,100947.00
2018-10-12T00:16:40.598Z,100947.00
2018-10-12T00:19:08.483Z,100942.00
2018-10-12T00:21:36.403Z,100940.00
2018-10-12T00:24:04.302Z,100950.00
2018-10-12T00:26:32.217Z,100961.00
2018-10-12T00:29:00.115Z,100968.00
2018-10-12T00:31:28.009Z,100959.00
2018-10-12T00:33:55.930Z,100956.00
2018-10-12T00:36:23.827Z,100967.00
2018-10-12T00:38:51.834Z,100969.00
2018-10-12T00:41:20.187Z,100973.00
2018-10-12T00:43:48.076Z,100977.00
2018-10-12T00:46:16.003Z,100982.00
2018-10-12T00:48:43.960Z,100991.00
2018-10-12T00:51:11.915Z,100993.00
2018-10-12T00:53:39.831Z,101003.00
2018-10-12T00:56:07.919Z,100998.00
2018-10-12T00:58:35.835Z,101000.00
2018-10-12T01:01:03.730Z,101005.00
2018-10-12T01:03:31.633Z,101013.00
2018-10-12T01:05:59.542Z,101014.00
2018-10-12T01:08:27.452Z,101021.00
2018-10-12T01:10:55.371Z,101023.00
2018-10-12T01:13:23.262Z,101023.00
2018-10-12T01:15:51.170Z,101025.00
2018-10-12T01:18:19.074Z,101023.00
2018-10-12T01:20:46.986Z,101026.00
2018-10-12T01:23:14.899Z,101022.00
2018-10-12T01:25:42.813Z,101012.00
2018-10-12T01:28:10.722Z,101021.00
2018-10-12T01:30:38.649Z,101023.00
2018-10-12T01:33:07.196Z,101021.00
2018-10-12T01:35:35.389Z,101012.00
2018-10-12T01:38:03.317Z,101014.00
2018-10-12T01:40:31.874Z,101015.00
2018-10-12T01:43:00.090Z,101008.00
2018-10-12T01:45:28.007Z,101021.00
2018-10-12T01:47:55.963Z,101006.00
2018-10-12T01:50:23.850Z,101006.00
2018-10-12T01:52:51.770Z,101007.00
2018-10-12T01:55:19.690Z,101010.00
2018-10-12T01:57:47.586Z,101009.00
2018-10-12T02:00:15.504Z,101011.00
2018-10-12T02:02:43.393Z,101009.00
2018-10-12T02:05:11.303Z,101016.00
2018-10-12T02:07:39.368Z,101012.00
2018-10-12T02:10:07.396Z,101034.00
2018-10-12T02:12:35.258Z,101036.00
2018-10-12T02:15:03.198Z,101047.00
2018-10-12T02:17:31.109Z,101047.00
2018-10-12T02:19:59.107Z,101049.00
2018-10-12T02:22:27.041Z,101049.00
2018-10-12T02:24:54.973Z,101048.00
2018-10-12T02:27:22.864Z,101052.00
2018-10-12T02:29:50.765Z,101056.00
2018-10-12T02:32:18.695Z,101061.00
2018-10-12T02:34:46.614Z,101058.00
2018-10-12T02:37:14.540Z,101051.00
2018-10-12T02:39:42.445Z,101040.00
2018-10-12T02:42:10.326Z,101047.00
2018-10-12T02:44:38.243Z,101045.00
2018-10-12T02:47:06.174Z,101041.00
2018-10-12T02:49:34.066Z,101048.00
2018-10-12T02:52:01.982Z,101055.00
2018-10-12T02:54:29.901Z,101066.00
2018-10-12T02:56:57.794Z,101071.00
2018-10-12T02:59:25.693Z,101067.00
2018-10-12T03:01:53.607Z,101079.00
2018-10-12T03:04:21.497Z,101088.00
2018-10-12T03:06:49.378Z,101081.00
2018-10-12T03:09:17.292Z,101078.00
2018-10-12T03:11:45.187Z,101078.00
2018-10-12T03:14:13.074Z,101093.00
2018-10-12T03:16:40.987Z,101102.00
2018-10-12T03:19:08.940Z,101108.00
2018-10-12T03:21:36.822Z,101110.00
2018-10-12T03:24:04.710Z,101120.00
2018-10-12T03:26:32.630Z,101123.00
2018-10-12T03:29:00.527Z,101124.00
2018-10-12T03:31:28.438Z,101120.00
2018-10-12T03:33:56.353Z,101127.00
2018-10-12T03:36:24.874Z,101115.00
2018-10-12T03:38:52.771Z,101116.00
2018-10-12T03:41:20.758Z,101112.00
2018-10-12T03:43:48.655Z,101120.00
2018-10-12T03:46:16.566Z,101131.00
2018-10-12T03:48:44.479Z,101127.00
2018-10-12T03:51:12.370Z,101134.00
2018-10-12T03:53:40.275Z,101131.00
2018-10-12T03:56:08.191Z,101131.00
2018-10-12T03:58:36.113Z,101138.00
2018-10-12T04:01:03.996Z,101145.00
2018-10-12T04:03:31.911Z,101131.00
2018-10-12T04:05:59.815Z,101142.00
2018-10-12T04:08:27.792Z,101145.00
2018-10-12T04:10:55.675Z,101138.00
2018-10-12T04:13:23.592Z,101142.00
2018-10-12T04:15:51.476Z,101146.00
2018-10-12T04:18:19.359Z,101158.00
2018-10-12T04:20:47.254Z,101162.00
2018-10-12T04:23:15.168Z,101167.00
2018-10-12T04:25:43.075Z,101166.00
2018-10-12T04:28:11.025Z,101166.00
2018-10-12T04:30:38.913Z,101164.00
2018-10-12T04:33:06.839Z,101172.00
2018-10-12T04:35:34.738Z,101173.00
2018-10-12T04:38:02.660Z,101184.00
2018-10-12T04:41:15.294Z,101184.00
2018-10-12T04:43:43.620Z,101185.00
2018-10-12T04:46:14.890Z,101193.00
2018-10-12T04:48:43.768Z,101190.00
2018-10-12T04:51:15.398Z,101186.00
2018-10-12T04:53:43.333Z,101191.00
2018-10-12T04:56:12.707Z,101192.00
2018-10-12T04:58:41.333Z,101202.00
2018-10-12T05:01:09.526Z,101204.00
2018-10-12T05:03:37.367Z,101203.00
2018-10-12T05:06:05.807Z,101206.00
2018-10-12T05:08:34.204Z,101213.00
2018-10-12T05:11:02.123Z,101224.00
2018-10-12T05:13:30.573Z,101224.00
2018-10-12T05:15:58.540Z,101221.00
2018-10-12T05:18:26.447Z,101234.00
2018-10-12T05:20:54.517Z,101235.00
2018-10-12T05:23:22.362Z,101234.00
2018-10-12T05:25:50.262Z,101235.00
2018-10-12T05:28:18.167Z,101240.00
2018-10-12T05:30:46.181Z,101240.00
2018-10-12T05:33:14.099Z,101243.00
2018-10-12T05:35:42.075Z,101244.00
2018-10-12T05:38:09.962Z,101256.00
2018-10-12T05:40:37.863Z,101255.00
2018-10-12T05:43:05.861Z,101260.00
2018-10-12T05:45:33.741Z,101261.00
2018-10-12T05:48:13.115Z,101262.00
2018-10-12T05:50:41.011Z,101266.00
2018-10-12T05:53:08.908Z,101269.00
2018-10-12T05:55:37.015Z,101270.00
2018-10-12T05:58:05.274Z,101266.00
2018-10-12T06:00:33.159Z,101267.00
2018-10-12T06:03:01.054Z,101272.00
2018-10-12T06:05:28.943Z,101277.00
2018-10-12T06:07:56.835Z,101278.00
2018-10-12T06:10:24.763Z,101278.00
2018-10-12T06:12:52.642Z,101281.00
2018-10-12T06:15:20.568Z,101279.00
2018-10-12T06:17:48.446Z,101279.00
2018-10-12T06:20:16.346Z,101280.00
2018-10-12T06:22:44.251Z,101284.00
2018-10-12T06:25:12.167Z,101292.00
2018-10-12T06:27:40.057Z,101300.00
2018-10-12T06:30:08.262Z,101303.00
2018-10-12T06:32:36.154Z,101316.00
2018-10-12T06:35:04.091Z,101319.00
2018-10-12T06:37:32.007Z,101332.00
2018-10-12T06:39:59.920Z,101339.00
2018-10-12T06:42:27.849Z,101347.00
2018-10-12T06:44:55.724Z,101352.00
2018-10-12T06:47:23.697Z,101355.00
2018-10-12T06:49:51.577Z,101363.00
2018-10-12T06:52:19.487Z,101366.00
2018-10-12T06:54:47.376Z,101370.00
2018-10-12T06:57:15.287Z,101372.00
2018-10-12T06:59:43.248Z,101372.00
2018-10-12T07:02:14.724Z,101377.00
2018-10-12T07:04:42.648Z,101373.00
2018-10-12T07:07:10.540Z,101371.00
2018-10-12T07:09:38.463Z,101381.00
2018-10-12T07:12:06.449Z,101383.00
2018-10-12T07:14:35.063Z,101378.00
2018-10-12T07:17:03.078Z,101379.00
2018-10-12T07:19:31.088Z,101384.00
2018-10-12T07:21:58.988Z,101390.00
2018-10-12T07:24:26.902Z,101390.00
2018-10-12T07:26:54.785Z,101394.00
2018-10-12T07:29:22.678Z,101394.00
2018-10-12T07:31:50.619Z,101399.00
2018-10-12T07:34:18.755Z,101410.00
2018-10-12T07:36:46.857Z,101413.00
2018-10-12T07:39:14.885Z,101419.00
2018-10-12T07:41:42.630Z,101422.00
2018-10-12T07:44:10.544Z,101428.00
2018-10-12T07:46:38.516Z,101425.00
2018-10-12T07:49:06.499Z,101428.00
2018-10-12T07:51:34.395Z,101436.00
2018-10-12T07:54:02.325Z,101440.00
2018-10-12T07:56:30.238Z,101446.00
2018-10-12T07:58:58.134Z,101443.00
2018-10-12T08:01:26.140Z,101445.00
2018-10-12T08:03:54.056Z,101441.00
2018-10-12T08:06:22.117Z,101439.00
2018-10-12T08:08:49.911Z,101432.00
2018-10-12T08:11:17.827Z,101435.00
2018-10-12T08:13:45.858Z,101432.00
2018-10-12T08:16:13.658Z,101438.00
2018-10-12T08:18:42.316Z,101432.00
2018-10-12T08:21:10.226Z,101441.00
2018-10-12T08:23:38.139Z,101436.00
2018-10-12T08:26:06.184Z,101437.00
2018-10-12T08:28:34.106Z,101431.00
2018-10-12T08:31:02.010Z,101431.00
2018-10-12T08:33:29.936Z,101434.00
2018-10-12T08:35:57.837Z,101434.00
2018-10-12T08:38:25.761Z,101440.00
2018-10-12T08:40:53.675Z,101442.00
2018-10-12T08:43:21.682Z,101441.00
2018-10-12T08:45:49.577Z,101449.00
2018-10-12T08:48:17.478Z,101450.00
2018-10-12T08:50:45.426Z,101454.00
2018-10-12T08:53:13.371Z,101451.00
2018-10-12T08:55:41.309Z,101455.00
2018-10-12T08:58:09.132Z,101455.00
2018-10-12T09:00:37.049Z,101456.00
2018-10-12T09:03:04.973Z,101458.00
2018-10-12T09:05:32.833Z,101453.00
2018-10-12T09:08:00.728Z,101454.00
2018-10-12T09:10:28.626Z,101451.00
2018-10-12T09:12:56.531Z,101452.00
2018-10-12T09:15:24.432Z,101448.00
2018-10-12T09:17:52.339Z,101452.00
2018-10-12T09:20:20.335Z,101448.00
2018-10-12T09:22:48.163Z,101454.00
2018-10-12T09:25:16.063Z,101443.00
2018-10-12T09:27:43.979Z,101452.00
2018-10-12T09:30:11.918Z,101454.00
2018-10-12T09:32:39.764Z,101447.00
2018-10-12T09:35:07.664Z,101445.00
2018-10-12T09:37:35.579Z,101445.00
2018-10-12T09:40:03.475Z,101444.00
2018-10-12T09:42:31.393Z,101431.00
2018-10-12T09:44:59.298Z,101435.00
2018-10-12T09:47:27.212Z,101443.00
2018-10-12T09:49:55.107Z,101429.00
2018-10-12T09:52:22.995Z,101429.00
2018-10-12T09:54:50.915Z,101423.00
2018-10-12T09:57:25.702Z,101422.00
2018-10-12T09:59:53.911Z,101421.00
2018-10-12T10:02:26.899Z,101421.00
2018-10-12T10:04:59.019Z,101399.00
2018-10-12T10:07:27.417Z,101411.00
2018-10-12T10:09:55.267Z,101424.00
2018-10-12T10:12:23.151Z,101408.00
2018-10-12T10:14:51.047Z,101415.00
2018-10-12T10:17:18.932Z,101420.00
2018-10-12T10:19:46.968Z,101414.00
2018-10-12T10:22:14.865Z,101413.00
2018-10-12T10:24:42.747Z,101415.00
2018-10-12T10:27:10.964Z,101412.00
2018-10-12T10:29:38.866Z,101400.00
2018-10-12T10:32:06.846Z,101481.00
2018-10-12T10:34:34.754Z,101419.00
2018-10-12T10:37:02.671Z,101418.00
2018-10-12T10:39:30.566Z,101472.00
2018-10-12T10:41:58.483Z,101389.00
2018-10-12T10:44:26.432Z,101377.00
2018-10-12T10:46:54.423Z,101366.00
2018-10-12T10:49:22.311Z,101364.00
2018-10-12T10:51:50.202Z,101371.00
2018-10-12T10:54:18.089Z,101372.00
2018-10-12T10:56:45.998Z,101358.00
2018-10-12T10:59:13.886Z,101353.00
2018-10-12T11:01:41.767Z,101357.00
2018-10-12T11:04:09.689Z,101369.00
2018-10-12T11:06:37.575Z,101384.00
2018-10-12T11:09:07.393Z,101355.00
2018-10-12T11:11:35.298Z,101342.00
2018-10-12T11:14:03.298Z,101361.00
2018-10-12T11:16:31.163Z,101346.00
2018-10-12T11:18:59.058Z,101351.00
2018-10-12T11:21:27.086Z,101353.00
2018-10-12T11:23:54.991Z,101355.00
2018-10-12T11:26:22.928Z,101353.00
2018-10-12T11:28:50.788Z,101362.00
2018-10-12T11:31:18.768Z,101361.00
2018-10-12T11:33:46.650Z,101355.00
2018-10-12T11:36:20.067Z,101350.00
2018-10-12T11:38:48.274Z,101357.00
2018-10-12T11:41:16.272Z,101355.00
2018-10-12T11:43:44.138Z,101349.00
2018-10-12T11:46:12.094Z,101353.00
2018-10-12T11:48:39.994Z,101349.00
2018-10-12T11:51:07.882Z,101359.00
2018-10-12T11:53:35.937Z,101347.00
2018-10-12T11:56:03.833Z,101347.00
2018-10-12T11:58:31.827Z,101349.00
2018-10-12T12:00:59.797Z,101348.00
2018-10-12T12:03:27.676Z,101343.00
2018-10-12T12:05:55.571Z,101338.00
2018-10-12T12:08:23.474Z,101344.00
2018-10-12T12:10:51.378Z,101344.00
2018-10-12T12:13:19.438Z,101337.00
2018-10-12T12:15:47.321Z,101335.00
2018-10-12T12:18:15.214Z,101342.00
2018-10-12T12:20:43.114Z,101334.00
2018-10-12T12:23:11.009Z,101328.00
2018-10-12T12:25:38.906Z,101331.00
2018-10-12T12:28:06.971Z,101338.00
2018-10-12T12:30:34.879Z,101337.00
2018-10-12T12:33:02.766Z,101337.00
2018-10-12T12:35:31.072Z,101343.00
2018-10-12T12:37:58.574Z,101336.00
2018-10-12T12:40:26.463Z,101336.00
2018-10-12T12:42:54.510Z,101330.00
2018-10-12T12:45:22.422Z,101330.00
2018-10-12T12:47:50.448Z,101333.00
2018-10-12T12:50:18.239Z,101341.00
2018-10-12T12:52:46.118Z,101338.00
2018-10-12T12:55:14.004Z,101334.00
2018-10-12T12:57:41.898Z,101336.00
2018-10-12T13:00:09.819Z,101335.00
2018-10-12T13:02:37.703Z,101339.00
2018-10-12T13:05:05.599Z,101351.00
2018-10-12T13:07:33.483Z,101334.00
2018-10-12T13:10:02.439Z,101324.00
2018-10-12T13:12:30.318Z,101332.00
2018-10-12T13:14:58.207Z,101334.00
2018-10-12T13:17:26.098Z,101330.00
2018-10-12T13:19:54.075Z,101330.00
2018-10-12T13:22:21.942Z,101327.00
2018-10-12T13:24:49.873Z,101335.00
2018-10-12T13:27:17.775Z,101331.00
2018-10-12T13:29:45.662Z,101332.00
2018-10-12T13:32:13.575Z,101336.00
2018-10-12T13:34:41.464Z,101339.00
2018-10-12T13:37:09.384Z,101337.00
2018-10-12T13:39:37.287Z,101335.00
2018-10-12T13:42:05.275Z,101341.00
2018-10-12T13:44:33.155Z,101346.00
2018-10-12T13:47:01.038Z,101347.00
2018-10-12T13:49:28.922Z,101344.00
2018-10-12T13:51:56.810Z,101354.00
2018-10-12T13:54:24.801Z,101353.00
2018-10-12T13:56:56.916Z,101353.00
2018-10-12T13:59:25.188Z,101349.00
2018-10-12T14:01:53.092Z,101355.00
2018-10-12T14:04:21.003Z,101352.00
2018-10-12T14:06:48.918Z,101347.00
2018-10-12T14:09:17.074Z,101341.00
2018-10-12T14:11:44.987Z,101345.00
2018-10-12T14:14:12.865Z,101354.00
2018-10-12T14:16:40.775Z,101354.00
2018-10-12T14:19:08.839Z,101362.00
2018-10-12T14:21:36.567Z,101367.00
2018-10-12T14:24:04.487Z,101369.00
2018-10-12T14:26:32.387Z,101369.00
2018-10-12T14:29:00.291Z,101376.00
2018-10-12T14:31:28.230Z,101369.00
2018-10-12T14:33:56.244Z,101371.00
2018-10-12T14:36:24.228Z,101376.00
2018-10-12T14:38:52.122Z,101377.00
2018-10-12T14:41:20.040Z,101375.00
2018-10-12T14:43:48.271Z,101378.00
2018-10-12T14:46:16.118Z,101375.00
2018-10-12T14:48:44.106Z,101375.00
2018-10-12T14:51:12.003Z,101380.00
2018-10-12T14:53:39.890Z,101373.00
2018-10-12T14:56:07.778Z,101375.00
2018-10-12T14:58:35.695Z,101367.00
2018-10-12T15:01:03.596Z,101375.00
2018-10-12T15:03:31.477Z,101375.00
2018-10-12T15:05:59.590Z,101374.00
2018-10-12T15:08:27.469Z,101368.00
2018-10-12T15:10:55.362Z,101368.00
2018-10-12T15:13:23.257Z,101369.00
2018-10-12T15:15:51.163Z,101372.00
2018-10-12T15:18:19.051Z,101370.00
2018-10-12T15:20:46.961Z,101368.00
2018-10-12T15:23:14.850Z,101367.00
2018-10-12T15:25:42.846Z,101367.00
2018-10-12T15:28:10.622Z,101368.00
2018-10-12T15:30:38.518Z,101362.00
2018-10-12T15:33:06.395Z,101368.00
2018-10-12T15:35:34.284Z,101370.00
2018-10-12T15:38:02.212Z,101363.00
2018-10-12T15:40:30.091Z,101369.00
2018-10-12T15:42:58.055Z,101371.00
2018-10-12T15:45:26.012Z,101367.00
2018-10-12T15:47:54.003Z,101362.00
2018-10-12T15:50:21.889Z,101364.00
2018-10-12T15:52:49.774Z,101366.00
2018-10-12T15:55:17.667Z,101366.00
2018-10-12T15:57:45.563Z,101371.00
2018-10-12T16:00:13.447Z,101369.00
2018-10-12T16:02:41.367Z,101372.00
2018-10-12T16:05:09.278Z,101376.00
2018-10-12T16:07:37.174Z,101378.00
2018-10-12T16:10:05.148Z,101374.00
2018-10-12T16:12:33.171Z,101374.00
2018-10-12T16:15:01.053Z,101377.00
2018-10-12T16:17:28.946Z,101378.00
2018-10-12T16:19:56.847Z,101374.00
2018-10-12T16:22:24.762Z,101376.00
2018-10-12T16:25:04.175Z,101377.00
2018-10-12T16:27:32.059Z,101381.00
2018-10-12T16:30:00.007Z,101386.00
2018-10-12T16:32:27.976Z,101391.00
2018-10-12T16:34:55.874Z,101397.00
2018-10-12T16:37:23.787Z,101400.00
2018-10-12T16:39:51.676Z,101404.00
2018-10-12T16:42:19.615Z,101407.00
2018-10-12T16:44:47.503Z,101409.00
2018-10-12T16:47:15.424Z,101411.00
2018-10-12T16:49:43.445Z,101415.00
2018-10-12T16:52:11.326Z,101413.00
2018-10-12T16:54:39.611Z,101413.00
2018-10-12T16:57:07.506Z,101410.00
2018-10-12T16:59:35.402Z,101416.00
2018-10-12T17:02:03.326Z,101412.00
2018-10-12T17:04:31.296Z,101418.00
2018-10-12T17:06:59.146Z,101412.00
2018-10-12T17:09:27.062Z,101417.00
2018-10-12T17:11:56.010Z,101422.00
2018-10-12T17:14:23.919Z,101429.00
2018-10-12T17:16:51.826Z,101425.00
2018-10-12T17:19:19.739Z,101429.00
2018-10-12T17:21:47.670Z,101429.00
2018-10-12T17:24:15.582Z,101428.00
2018-10-12T17:26:43.505Z,101439.00
2018-10-12T17:29:11.446Z,101440.00
2018-10-12T17:31:39.342Z,101442.00
2018-10-12T17:34:07.252Z,101439.00
2018-10-12T17:36:35.148Z,101445.00
2018-10-12T17:39:03.544Z,101449.00
2018-10-12T17:41:31.491Z,101446.00
2018-10-12T17:43:59.354Z,101448.00
2018-10-12T17:46:27.254Z,101448.00
2018-10-12T17:48:55.155Z,101458.00
2018-10-12T17:51:23.063Z,101456.00
2018-10-12T17:53:50.968Z,101458.00
2018-10-12T17:56:18.869Z,101456.00
2018-10-12T17:58:46.759Z,101461.00
2018-10-12T18:01:14.638Z,101467.00
2018-10-12T18:03:42.532Z,101461.00
2018-10-12T18:06:10.443Z,101467.00
2018-10-12T18:08:38.346Z,101470.00
2018-10-12T18:11:06.331Z,101476.00
2018-10-12T18:13:34.230Z,101477.00
2018-10-12T18:16:02.128Z,101476.00
2018-10-12T18:18:30.063Z,101468.00
2018-10-12T18:20:57.938Z,101473.00
2018-10-12T18:23:25.852Z,101475.00
2018-10-12T18:25:53.818Z,101477.00
2018-10-12T18:28:21.667Z,101477.00
2018-10-12T18:30:49.755Z,101472.00
2018-10-12T18:33:17.630Z,101480.00
2018-10-12T18:35:45.515Z,101486.00
2018-10-12T18:38:13.414Z,101479.00
2018-10-12T18:40:41.322Z,101474.00
2018-10-12T18:43:09.310Z,101480.00
2018-10-12T18:45:37.202Z,101488.00
2018-10-12T18:48:05.083Z,101497.00
2018-10-12T18:50:33.017Z,101495.00
2018-10-12T18:53:00.986Z,101497.00
2018-10-12T18:55:28.961Z,101496.00
2018-10-12T18:57:56.928Z,101502.00
2018-10-12T19:00:24.935Z,101503.00
2018-10-12T19:02:52.822Z,101506.00
2018-10-12T19:05:20.727Z,101506.00
2018-10-12T19:07:48.614Z,101503.00
2018-10-12T19:10:16.539Z,101501.00
2018-10-12T19:12:44.454Z,101502.00
2018-10-12T19:15:12.342Z,101506.00
2018-10-12T19:17:40.259Z,101503.00
2018-10-12T19:20:08.372Z,101506.00
2018-10-12T19:22:36.271Z,101507.00
2018-10-12T19:25:04.195Z,101509.00
2018-10-12T19:27:32.101Z,101514.00
2018-10-12T19:30:00.019Z,101520.00
2018-10-12T19:32:27.929Z,101519.00
2018-10-12T19:34:55.840Z,101526.00
2018-10-12T19:37:23.739Z,101527.00
2018-10-12T19:39:51.659Z,101526.00
2018-10-12T19:45:28.988Z,101529.00
2018-10-12T19:47:56.948Z,101526.00
2018-10-12T19:50:24.880Z,101530.00
2018-10-12T19:52:52.876Z,101528.00
2018-10-12T19:55:20.743Z,101529.00
2018-10-12T19:57:48.662Z,101528.00
2018-10-12T20:00:16.641Z,101529.00
2018-10-12T20:02:44.520Z,101534.00
2018-10-12T20:05:12.427Z,101540.00
2018-10-12T20:07:40.375Z,101541.00
2018-10-12T20:10:08.287Z,101545.00
2018-10-12T20:12:36.216Z,101548.00
2018-10-12T20:15:04.344Z,101548.00
2018-10-12T20:17:32.249Z,101553.00
2018-10-12T20:20:00.143Z,101547.00
2018-10-12T20:22:28.070Z,101552.00
2018-10-12T20:24:55.985Z,101554.00
2018-10-12T20:27:23.892Z,101554.00
2018-10-12T20:29:51.824Z,101557.00
2018-10-12T20:32:19.743Z,101555.00
2018-10-12T20:34:47.647Z,101554.00
2018-10-12T20:37:15.540Z,101556.00
2018-10-12T20:39:43.468Z,101554.00
2018-10-12T20:42:11.408Z,101552.00
2018-10-12T20:44:39.336Z,101555.00
2018-10-12T20:47:07.524Z,101558.00
2018-10-12T20:49:35.533Z,101556.00
2018-10-12T20:52:03.446Z,101551.00
2018-10-12T20:54:31.353Z,101549.00
2018-10-12T20:56:59.275Z,101552.00
2018-10-12T20:59:27.344Z,101558.00
2018-10-12T21:01:55.366Z,101553.00
2018-10-12T21:04:23.276Z,101552.00
2018-10-12T21:06:51.184Z,101557.00
2018-10-12T21:09:19.071Z,101553.00
2018-10-12T21:11:46.968Z,101556.00
2018-10-12T21:14:14.899Z,101553.00
2018-10-12T21:16:42.800Z,101557.00
2018-10-12T21:19:10.720Z,101557.00
2018-10-12T21:21:38.632Z,101551.00
2018-10-12T21:24:06.540Z,101553.00
2018-10-12T21:26:34.516Z,101550.00
2018-10-12T21:29:02.449Z,101559.00
2018-10-12T21:31:30.385Z,101554.00
2018-10-12T21:33:58.291Z,101549.00
2018-10-12T21:36:26.248Z,101549.00
2018-10-12T21:38:54.147Z,101547.00
2018-10-12T21:41:22.064Z,101551.00
2018-10-12T21:43:49.968Z,101548.00
2018-10-12T21:46:17.901Z,101550.00
2018-10-12T21:48:45.809Z,101548.00
2018-10-12T21:51:13.744Z,101551.00
2018-10-12T21:53:41.669Z,101543.00
2018-10-12T21:56:09.571Z,101549.00
2018-10-12T21:58:37.480Z,101554.00
2018-10-12T22:01:05.987Z,101552.00
2018-10-12T22:03:35.614Z,101549.00
2018-10-12T22:06:03.774Z,101540.00
2018-10-12T22:08:36.999Z,101546.00
2018-10-12T22:11:05.652Z,101547.00
2018-10-12T22:13:33.815Z,101544.00
2018-10-12T22:16:01.742Z,101543.00
2018-10-12T22:18:29.758Z,101544.00
2018-10-12T22:20:57.651Z,101547.00
2018-10-12T22:23:25.590Z,101545.00
2018-10-12T22:25:53.752Z,101542.00
2018-10-12T22:28:21.560Z,101544.00
2018-10-12T22:30:49.460Z,101541.00
2018-10-12T22:33:17.464Z,101544.00
2018-10-12T22:35:45.340Z,101539.00
2018-10-12T22:38:13.235Z,101539.00
2018-10-12T22:40:41.169Z,101537.00
2018-10-12T22:43:09.128Z,101533.00
2018-10-12T22:45:37.023Z,101532.00
2018-10-12T22:48:04.935Z,101528.00
2018-10-12T22:50:32.855Z,101522.00
2018-10-12T22:53:00.963Z,101517.00
2018-10-12T22:55:28.867Z,101520.00
2018-10-12T22:58:01.448Z,101520.00
2018-10-12T23:00:30.536Z,101517.00
2018-10-12T23:02:58.588Z,101516.00
2018-10-12T23:05:26.840Z,101518.00
2018-10-12T23:07:54.760Z,101517.00
2018-10-12T23:10:23.252Z,101517.00
2018-10-12T23:12:51.237Z,101521.00
2018-10-12T23:15:19.127Z,101519.00
2018-10-12T23:17:47.141Z,101518.00
2018-10-12T23:20:15.051Z,101517.00
2018-10-12T23:22:43.008Z,101517.00
2018-10-12T23:25:10.909Z,101517.00
2018-10-12T23:27:38.823Z,101509.00
2018-10-12T23:30:07.617Z,101512.00
2018-10-12T23:32:35.544Z,101514.00
2018-10-12T23:35:03.441Z,101508.00
2018-10-12T23:37:31.340Z,101512.00
2018-10-12T23:39:59.635Z,101509.00
2018-10-12T23:42:27.523Z,101510.00
2018-10-12T23:44:55.435Z,101505.00
2018-10-12T23:47:23.423Z,101513.00
2018-10-12T23:49:51.280Z,101517.00
2018-10-12T23:52:19.207Z,101518.00
2018-10-12T23:54:47.378Z,101519.00
2018-10-12T23:57:15.312Z,101514.00
2018-10-12T23:59:43.222Z,101517.00
